Time;durP1;ratioP1;P1;durP2;ratioP2;P2;SDS_P1;SDS_P2;PMS_P1;PMS_P2;Temp;Humidity;BMP_temperature;BMP_pressure;BME280_temperature;BME280_humidity;BME280_pressure;Samples;Min_cycle;Max_cycle;Signal;HPM_P1;HPM_P2
2021/01/03 00:01:23;;;;;;;;;;;5.50;96.30;;;;;;5089450;28;19983;-91
2021/01/03 00:03:49;;;;;;;;;;;5.50;96.60;;;;;;5071051;28;19930;-92
2021/01/03 00:06:14;;;;;;;;;;;5.50;96.30;;;;;;5051793;28;19919;-91
2021/01/03 00:08:40;;;;;;;;;;;5.50;96.30;;;;;;5080609;28;19908;-92
2021/01/03 00:11:05;;;;;;;;;;;5.50;96.40;;;;;;5076962;28;19904;-92
2021/01/03 00:13:31;;;;;;;;;;;5.50;96.40;;;;;;5044377;28;19966;-92
2021/01/03 00:15:56;;;;;;;;;;;5.50;96.40;;;;;;5074744;28;19914;-89
2021/01/03 00:18:22;;;;;;;;;;;5.50;96.40;;;;;;5052691;28;19998;-92
2021/01/03 00:20:47;;;;;;;;;;;5.50;96.40;;;;;;5095387;28;19961;-90
2021/01/03 00:23:13;;;;;;;;;;;5.50;96.40;;;;;;5083169;28;19911;-92
2021/01/03 00:25:38;;;;;;;;;;;5.50;96.40;;;;;;5112873;28;19961;-92
2021/01/03 00:28:04;;;;;;;;;;;5.50;96.40;;;;;;5083021;28;19919;-92
2021/01/03 00:30:29;;;;;;;;;;;5.50;96.40;;;;;;5077668;28;20371;-92
2021/01/03 00:32:56;;;;;;;;;;;5.50;96.30;;;;;;5079198;28;19908;-92
2021/01/03 00:35:25;;;;;;;;;;;5.50;96.30;;;;;;5069320;28;19920;-91
2021/01/03 00:37:50;;;;;;;;;;;5.50;96.30;;;;;;5074434;28;19983;-92
2021/01/03 00:40:18;;;;;;;;;;;5.50;96.20;;;;;;5078072;28;19996;-91
2021/01/03 00:42:44;;;;;;;;;;;5.50;96.30;;;;;;5114624;28;19919;-91
2021/01/03 00:45:10;;;;;;;;;;;5.50;96.30;;;;;;5100267;28;19911;-90
2021/01/03 00:47:36;;;;;;;;;;;5.40;96.30;;;;;;5108613;28;19908;-91
2021/01/03 00:50:02;;;;;;;;;;;5.40;96.30;;;;;;5093902;28;19961;-90
2021/01/03 00:52:28;;;;;;;;;;;5.40;96.30;;;;;;5076636;28;19916;-92
2021/01/03 00:54:53;;;;;;;;;;;5.40;96.30;;;;;;5086051;28;19923;-91
2021/01/03 00:57:19;;;;;;;;;;;5.40;96.20;;;;;;5094111;28;20380;-92
2021/01/03 00:59:44;;;;;;;;;;;5.40;96.30;;;;;;5094148;28;19908;-91
2021/01/03 01:02:10;;;;;;;;;;;5.40;96.30;;;;;;5090380;28;19908;-90
2021/01/03 01:04:35;;;;;;;;;;;5.40;96.20;;;;;;5096572;28;20435;-90
2021/01/03 01:07:01;;;;;;;;;;;5.40;96.20;;;;;;5085040;28;20002;-89
2021/01/03 01:09:26;;;;;;;;;;;5.40;96.20;;;;;;5091228;28;20352;-91
2021/01/03 01:11:53;;;;;;;;;;;5.40;96.20;;;;;;5103929;28;19912;-92
2021/01/03 01:14:19;;;;;;;;;;;5.40;96.20;;;;;;5099202;28;19911;-89
2021/01/03 01:16:44;;;;;;;;;;;5.40;96.30;;;;;;5096918;28;19912;-91
2021/01/03 01:19:10;;;;;;;;;;;5.40;96.30;;;;;;5100661;28;19914;-90
2021/01/03 01:21:35;;;;;;;;;;;5.40;96.30;;;;;;5073363;28;20291;-92
2021/01/03 01:24:01;;;;;;;;;;;5.40;96.40;;;;;;5061179;28;19918;-89
2021/01/03 01:26:26;;;;;;;;;;;5.40;96.40;;;;;;5077340;28;19908;-91
2021/01/03 01:28:52;;;;;;;;;;;5.40;96.40;;;;;;5061550;28;19991;-91
2021/01/03 01:31:18;;;;;;;;;;;5.40;96.40;;;;;;5085650;28;19976;-90
2021/01/03 01:33:43;;;;;;;;;;;5.30;96.40;;;;;;5082144;28;19901;-91
2021/01/03 01:36:09;;;;;;;;;;;5.40;96.40;;;;;;5092734;28;19904;-90
2021/01/03 01:38:35;;;;;;;;;;;5.40;96.40;;;;;;5090539;28;19943;-89
2021/01/03 01:41:00;;;;;;;;;;;5.40;96.40;;;;;;5096228;28;20380;-89
2021/01/03 01:43:26;;;;;;;;;;;5.40;96.40;;;;;;5104006;28;19915;-90
2021/01/03 01:45:51;;;;;;;;;;;5.40;96.50;;;;;;5096699;28;19995;-89
2021/01/03 01:48:30;;;;;;;;;;;5.40;96.50;;;;;;5066362;28;19908;-91
2021/01/03 01:51:05;;;;;;;;;;;5.40;96.50;;;;;;5106921;28;19908;-91
2021/01/03 01:53:34;;;;;;;;;;;5.40;96.50;;;;;;5087696;28;20084;-91
2021/01/03 01:56:03;;;;;;;;;;;5.40;96.50;;;;;;5091815;28;19911;-91
2021/01/03 01:58:39;;;;;;;;;;;5.50;96.50;;;;;;5091281;28;19973;-90
2021/01/03 02:01:07;;;;;;;;;;;5.40;96.50;;;;;;5060395;28;20378;-91
2021/01/03 02:03:38;;;;;;;;;;;5.40;96.40;;;;;;5053762;28;19908;-89
2021/01/03 02:06:08;;;;;;;;;;;5.50;96.50;;;;;;5075710;28;19959;-90
2021/01/03 02:08:36;;;;;;;;;;;5.40;96.40;;;;;;5065550;28;19931;-91
2021/01/03 02:11:03;;;;;;;;;;;5.40;96.30;;;;;;5063802;28;20375;-91
2021/01/03 02:13:31;;;;;;;;;;;5.40;96.30;;;;;;5074084;28;19904;-91
2021/01/03 02:16:01;;;;;;;;;;;5.40;96.40;;;;;;5091770;28;19908;-91
2021/01/03 02:18:27;;;;;;;;;;;5.40;96.40;;;;;;5072626;28;19915;-91
2021/01/03 02:21:11;;;;;;;;;;;5.40;96.40;;;;;;5067700;28;19919;-90
2021/01/03 02:23:55;;;;;;;;;;;5.40;96.50;;;;;;5087369;28;19915;-90
2021/01/03 02:26:21;;;;;;;;;;;5.40;96.50;;;;;;5064872;28;19966;-90
2021/01/03 02:28:48;;;;;;;;;;;5.40;96.50;;;;;;5050863;28;19912;-91
2021/01/03 02:31:15;;;;;;;;;;;5.40;96.50;;;;;;5060594;28;19908;-90
2021/01/03 02:33:47;;;;;;;;;;;5.40;96.40;;;;;;5073476;28;20003;-90
2021/01/03 02:36:18;;;;;;;;;;;5.40;96.50;;;;;;5077311;28;19961;-91
2021/01/03 02:38:50;;;;;;;;;;;5.40;96.40;;;;;;5074759;28;20038;-92
2021/01/03 02:41:17;;;;;;;;;;;5.40;96.40;;;;;;5077934;28;19908;-91
2021/01/03 02:43:42;;;;;;;;;;;5.40;96.40;;;;;;5066983;28;20023;-91
2021/01/03 02:46:08;;;;;;;;;;;5.40;96.40;;;;;;5059928;28;19991;-91
2021/01/03 02:48:33;;;;;;;;;;;5.40;96.40;;;;;;5053980;28;19945;-90
2021/01/03 02:50:59;;;;;;;;;;;5.40;96.40;;;;;;5092706;28;20259;-90
2021/01/03 02:53:24;;;;;;;;;;;5.40;96.40;;;;;;5061458;28;19927;-90
2021/01/03 02:55:50;;;;;;;;;;;5.40;96.40;;;;;;5072129;28;20275;-90
2021/01/03 02:58:15;;;;;;;;;;;5.40;96.40;;;;;;5082176;28;19926;-90
2021/01/03 03:00:41;;;;;;;;;;;5.40;96.50;;;;;;5085572;28;19904;-90
2021/01/03 03:03:08;;;;;;;;;;;5.30;96.50;;;;;;5061450;28;20372;-91
2021/01/03 03:05:34;;;;;;;;;;;5.40;96.50;;;;;;5092109;28;19912;-90
2021/01/03 03:07:59;;;;;;;;;;;5.40;96.50;;;;;;5068308;28;19915;-91
2021/01/03 03:10:25;;;;;;;;;;;5.30;96.50;;;;;;5065568;28;19904;-91
2021/01/03 03:12:52;;;;;;;;;;;5.40;96.60;;;;;;5078714;28;19904;-88
2021/01/03 03:15:18;;;;;;;;;;;5.40;96.60;;;;;;5077688;28;20033;-91
2021/01/03 03:17:43;;;;;;;;;;;5.40;96.60;;;;;;5092380;28;20019;-90
2021/01/03 03:20:10;;;;;;;;;;;5.40;96.60;;;;;;5064941;28;19915;-91
2021/01/03 03:22:35;;;;;;;;;;;5.40;96.60;;;;;;5081095;28;19911;-91
2021/01/03 03:25:01;;;;;;;;;;;5.40;96.60;;;;;;5080965;28;19908;-91
2021/01/03 03:27:26;;;;;;;;;;;5.40;96.60;;;;;;5057106;28;19919;-91
2021/01/03 03:29:52;;;;;;;;;;;5.40;96.60;;;;;;5061488;28;19908;-89
2021/01/03 03:32:17;;;;;;;;;;;5.40;96.50;;;;;;5059342;28;19954;-91
2021/01/03 03:34:43;;;;;;;;;;;5.40;96.60;;;;;;5061713;28;19908;-90
2021/01/03 03:37:08;;;;;;;;;;;5.40;96.60;;;;;;5093853;28;19981;-90
2021/01/03 03:39:34;;;;;;;;;;;5.40;96.60;;;;;;5076597;28;19916;-89
2021/01/03 03:42:00;;;;;;;;;;;5.50;96.60;;;;;;5072603;28;19914;-89
2021/01/03 03:44:26;;;;;;;;;;;5.40;96.60;;;;;;5051677;28;19908;-91
2021/01/03 03:46:53;;;;;;;;;;;5.40;96.60;;;;;;5081607;28;19908;-91
2021/01/03 03:49:19;;;;;;;;;;;5.40;96.60;;;;;;5103256;28;19904;-91
2021/01/03 03:51:44;;;;;;;;;;;5.40;96.60;;;;;;5100695;28;19916;-91
2021/01/03 03:54:10;;;;;;;;;;;5.50;96.60;;;;;;5060940;28;19913;-91
2021/01/03 03:56:35;;;;;;;;;;;5.40;96.60;;;;;;5074626;28;19909;-90
2021/01/03 03:59:01;;;;;;;;;;;5.50;96.60;;;;;;5056338;28;19915;-91
2021/01/03 04:01:35;;;;;;;;;;;5.40;96.60;;;;;;5040625;28;19909;-90
2021/01/03 04:04:01;;;;;;;;;;;5.40;96.60;;;;;;5087878;28;20420;-90
2021/01/03 04:06:26;;;;;;;;;;;5.40;96.60;;;;;;5056201;28;20003;-89
2021/01/03 04:08:52;;;;;;;;;;;5.40;96.60;;;;;;5054381;28;19908;-90
2021/01/03 04:11:17;;;;;;;;;;;5.40;96.60;;;;;;5061400;28;19919;-90
2021/01/03 04:13:43;;;;;;;;;;;5.40;96.60;;;;;;5070122;28;19916;-90
2021/01/03 04:16:08;;;;;;;;;;;5.40;96.60;;;;;;5055541;28;19916;-89
2021/01/03 04:18:34;;;;;;;;;;;5.40;96.60;;;;;;5056772;28;19923;-91
2021/01/03 04:20:59;;;;;;;;;;;5.40;96.60;;;;;;5069514;28;20355;-89
2021/01/03 04:23:25;;;;;;;;;;;5.40;96.60;;;;;;5094415;28;19904;-89
2021/01/03 04:25:50;;;;;;;;;;;5.40;96.60;;;;;;5078011;28;20049;-90
2021/01/03 04:28:16;;;;;;;;;;;5.40;96.60;;;;;;5100022;28;19909;-91
2021/01/03 04:30:43;;;;;;;;;;;5.40;96.60;;;;;;5083144;28;19912;-91
2021/01/03 04:33:08;;;;;;;;;;;5.40;96.60;;;;;;5115404;28;19947;-90
2021/01/03 04:35:34;;;;;;;;;;;5.40;96.60;;;;;;5114627;28;19911;-90
2021/01/03 04:37:59;;;;;;;;;;;5.40;96.60;;;;;;5068682;28;19920;-91
2021/01/03 04:40:27;;;;;;;;;;;5.40;96.60;;;;;;5073044;28;19930;-89
2021/01/03 04:42:54;;;;;;;;;;;5.40;96.60;;;;;;5102012;28;19903;-90
2021/01/03 04:45:31;;;;;;;;;;;5.40;96.60;;;;;;5113117;28;19949;-90
2021/01/03 04:47:57;;;;;;;;;;;5.40;96.60;;;;;;5102528;28;19943;-90
2021/01/03 04:50:41;;;;;;;;;;;5.40;96.60;;;;;;5112630;28;19935;-91
2021/01/03 04:53:27;;;;;;;;;;;5.40;96.60;;;;;;5095749;28;20404;-90
2021/01/03 04:56:08;;;;;;;;;;;5.40;96.60;;;;;;5068082;28;19994;-90
2021/01/03 04:58:46;;;;;;;;;;;5.40;96.60;;;;;;5085951;28;19923;-91
2021/01/03 05:01:18;;;;;;;;;;;5.40;96.60;;;;;;5076418;28;19923;-92
2021/01/03 05:03:46;;;;;;;;;;;5.40;96.60;;;;;;5086974;28;20363;-90
2021/01/03 05:06:18;;;;;;;;;;;5.40;96.60;;;;;;5094489;28;19903;-90
2021/01/03 05:08:46;;;;;;;;;;;5.40;96.60;;;;;;5094256;28;19919;-90
2021/01/03 05:11:20;;;;;;;;;;;5.40;96.60;;;;;;5067312;28;19904;-91
2021/01/03 05:14:10;;;;;;;;;;;5.40;96.60;;;;;;5094889;28;19927;-91
2021/01/03 05:16:35;;;;;;;;;;;5.40;96.60;;;;;;5088120;28;19923;-89
2021/01/03 05:19:01;;;;;;;;;;;5.40;96.60;;;;;;5093070;28;19907;-90
2021/01/03 05:21:42;;;;;;;;;;;5.40;96.60;;;;;;5118353;28;19913;-87
2021/01/03 05:24:07;;;;;;;;;;;5.30;96.60;;;;;;5107779;28;19911;-89
2021/01/03 05:26:34;;;;;;;;;;;5.40;96.70;;;;;;5073794;28;19896;-90
2021/01/03 05:29:00;;;;;;;;;;;5.40;96.70;;;;;;5093202;28;20203;-91
2021/01/03 05:31:26;;;;;;;;;;;5.40;96.70;;;;;;5088372;28;20360;-87
2021/01/03 05:33:54;;;;;;;;;;;5.40;96.70;;;;;;5052134;28;19912;-90
2021/01/03 05:36:37;;;;;;;;;;;5.40;96.70;;;;;;5061184;28;19930;-89
2021/01/03 05:39:10;;;;;;;;;;;5.40;96.60;;;;;;5087144;28;19923;-91
2021/01/03 05:41:38;;;;;;;;;;;5.40;96.60;;;;;;5068003;28;19992;-90
2021/01/03 05:44:10;;;;;;;;;;;5.40;96.70;;;;;;5083731;28;19914;-90
2021/01/03 05:46:46;;;;;;;;;;;5.40;96.70;;;;;;5099915;28;19930;-91
2021/01/03 05:49:24;;;;;;;;;;;5.40;96.70;;;;;;5110309;28;20355;-90
2021/01/03 05:52:08;;;;;;;;;;;5.40;96.60;;;;;;5084519;28;20025;-89
2021/01/03 05:54:36;;;;;;;;;;;5.40;96.60;;;;;;5094208;28;19912;-91
2021/01/03 05:57:06;;;;;;;;;;;5.40;96.70;;;;;;5093901;28;19994;-90
2021/01/03 05:59:33;;;;;;;;;;;5.40;96.70;;;;;;5112266;28;19916;-89
2021/01/03 06:02:08;;;;;;;;;;;5.40;96.70;;;;;;5097111;28;19998;-91
2021/01/03 06:04:33;;;;;;;;;;;5.40;96.70;;;;;;5075819;28;19995;-91
2021/01/03 06:06:59;;;;;;;;;;;5.40;96.70;;;;;;5052137;28;20003;-90
2021/01/03 06:09:42;;;;;;;;;;;5.40;96.70;;;;;;5087044;28;19904;-88
2021/01/03 06:12:08;;;;;;;;;;;5.40;96.70;;;;;;5089720;28;19903;-90
2021/01/03 06:14:35;;;;;;;;;;;5.30;96.70;;;;;;5086452;28;20369;-90
2021/01/03 06:17:12;;;;;;;;;;;5.40;96.70;;;;;;5088494;28;19958;-91
2021/01/03 06:20:04;;;;;;;;;;;5.40;96.70;;;;;;5060698;28;19914;-88
2021/01/03 06:22:37;;;;;;;;;;;5.40;96.70;;;;;;5087601;28;19915;-91
2021/01/03 06:25:10;;;;;;;;;;;5.40;96.70;;;;;;5102169;28;20356;-90
2021/01/03 06:27:35;;;;;;;;;;;5.40;96.70;;;;;;5096501;28;20360;-89
2021/01/03 06:30:09;;;;;;;;;;;5.40;96.70;;;;;;5094140;28;19914;-91
2021/01/03 06:32:37;;;;;;;;;;;5.40;96.70;;;;;;5094608;28;19908;-90
2021/01/03 06:35:14;;;;;;;;;;;5.40;96.70;;;;;;5095331;28;19904;-90
2021/01/03 06:37:41;;;;;;;;;;;5.40;96.70;;;;;;5112347;28;19919;-91
2021/01/03 06:40:26;;;;;;;;;;;5.40;96.70;;;;;;5083040;28;19904;-90
2021/01/03 06:42:51;;;;;;;;;;;5.40;96.70;;;;;;5097058;28;19950;-90
2021/01/03 06:45:29;;;;;;;;;;;5.40;96.70;;;;;;5094788;28;19943;-91
2021/01/03 06:48:13;;;;;;;;;;;5.40;96.70;;;;;;5070943;28;19912;-89
2021/01/03 06:50:48;;;;;;;;;;;5.40;96.70;;;;;;5083967;28;19925;-91
2021/01/03 06:53:21;;;;;;;;;;;5.30;96.60;;;;;;5057087;28;19904;-90
2021/01/03 06:56:05;;;;;;;;;;;5.40;96.70;;;;;;5085653;28;19919;-90
2021/01/03 06:58:47;;;;;;;;;;;5.30;96.70;;;;;;5083236;28;19958;-90
2021/01/03 07:01:32;;;;;;;;;;;5.40;96.70;;;;;;5095008;28;19915;-91
2021/01/03 07:03:59;;;;;;;;;;;5.40;96.70;;;;;;5115459;28;19907;-91
2021/01/03 07:06:32;;;;;;;;;;;5.40;96.70;;;;;;5083571;28;19912;-91
2021/01/03 07:09:02;;;;;;;;;;;5.40;96.70;;;;;;5104895;28;20375;-90
2021/01/03 07:11:43;;;;;;;;;;;5.40;96.70;;;;;;5094191;28;19908;-90
2021/01/03 07:14:28;;;;;;;;;;;5.40;96.60;;;;;;5066953;28;20290;-91
2021/01/03 07:17:00;;;;;;;;;;;5.40;96.70;;;;;;5113238;28;19923;-91
2021/01/03 07:19:31;;;;;;;;;;;5.30;96.60;;;;;;5104004;28;19910;-90
2021/01/03 07:22:02;;;;;;;;;;;5.30;96.60;;;;;;5094031;28;19908;-91
2021/01/03 07:24:56;;;;;;;;;;;5.40;96.70;;;;;;5105856;28;19919;-90
2021/01/03 07:27:25;;;;;;;;;;;5.30;96.60;;;;;;5107404;28;20375;-90
2021/01/03 07:30:11;;;;;;;;;;;5.30;96.60;;;;;;5090979;28;19908;-89
2021/01/03 07:32:37;;;;;;;;;;;5.40;96.60;;;;;;5094939;28;19908;-89
2021/01/03 07:35:08;;;;;;;;;;;5.30;96.60;;;;;;5076188;28;19995;-90
2021/01/03 07:37:34;;;;;;;;;;;5.30;96.60;;;;;;5081231;28;19919;-91
2021/01/03 07:40:04;;;;;;;;;;;5.30;96.60;;;;;;5070464;28;20662;-90
2021/01/03 07:42:33;;;;;;;;;;;5.30;96.60;;;;;;5095947;28;19947;-92
2021/01/03 07:45:00;;;;;;;;;;;5.30;96.50;;;;;;5092585;28;19919;-91
2021/01/03 07:47:34;;;;;;;;;;;5.30;96.50;;;;;;5057389;28;20405;-91
2021/01/03 07:50:15;;;;;;;;;;;5.30;96.50;;;;;;5072962;28;19946;-91
2021/01/03 07:52:41;;;;;;;;;;;5.30;96.50;;;;;;5085103;28;20000;-89
2021/01/03 07:55:12;;;;;;;;;;;5.30;96.50;;;;;;5075593;28;20371;-91
2021/01/03 07:57:37;;;;;;;;;;;5.20;96.40;;;;;;5085515;28;19963;-91
2021/01/03 08:00:03;;;;;;;;;;;5.30;96.40;;;;;;5070221;28;19943;-91
2021/01/03 08:02:30;;;;;;;;;;;5.30;96.40;;;;;;5088741;28;19908;-90
2021/01/03 08:04:57;;;;;;;;;;;5.20;96.40;;;;;;5055682;28;19944;-90
2021/01/03 08:07:23;;;;;;;;;;;5.20;96.40;;;;;;5079801;28;19986;-91
2021/01/03 08:09:49;;;;;;;;;;;5.20;96.40;;;;;;5076420;28;19908;-89
2021/01/03 08:12:31;;;;;;;;;;;5.20;96.40;;;;;;5060249;28;19919;-89
2021/01/03 08:15:01;;;;;;;;;;;5.20;96.40;;;;;;5071197;28;19905;-90
2021/01/03 08:17:32;;;;;;;;;;;5.20;96.40;;;;;;5074059;28;19917;-89
2021/01/03 08:20:01;;;;;;;;;;;5.20;96.40;;;;;;5056955;28;19947;-91
2021/01/03 08:22:27;;;;;;;;;;;5.20;96.40;;;;;;5066129;28;19908;-89
2021/01/03 08:24:57;;;;;;;;;;;5.20;96.30;;;;;;5059005;28;19912;-88
2021/01/03 08:27:38;;;;;;;;;;;5.20;96.40;;;;;;5055991;28;20003;-90
2021/01/03 08:30:05;;;;;;;;;;;5.20;96.30;;;;;;5069824;28;19915;-89
2021/01/03 08:32:32;;;;;;;;;;;5.20;96.30;;;;;;5056344;28;19912;-91
2021/01/03 08:34:59;;;;;;;;;;;5.20;96.20;;;;;;5056083;28;20419;-90
2021/01/03 08:37:27;;;;;;;;;;;5.20;96.20;;;;;;5055427;28;19933;-91
2021/01/03 08:39:53;;;;;;;;;;;5.20;96.20;;;;;;5074597;28;19912;-90
2021/01/03 08:42:33;;;;;;;;;;;5.10;96.10;;;;;;5056996;28;19958;-89
2021/01/03 08:44:59;;;;;;;;;;;5.10;96.10;;;;;;5069907;28;19923;-89
2021/01/03 08:47:31;;;;;;;;;;;5.20;96.10;;;;;;5056289;28;19909;-91
2021/01/03 08:50:02;;;;;;;;;;;5.10;96.10;;;;;;5076108;28;19911;-90
2021/01/03 08:52:28;;;;;;;;;;;5.10;96.10;;;;;;5077595;28;19957;-90
2021/01/03 08:55:05;;;;;;;;;;;5.10;96.10;;;;;;5094017;28;19916;-89
2021/01/03 08:57:30;;;;;;;;;;;5.10;96.20;;;;;;5062711;28;19915;-89
2021/01/03 08:59:57;;;;;;;;;;;5.10;96.20;;;;;;5099777;28;19912;-89
2021/01/03 09:02:24;;;;;;;;;;;5.10;96.10;;;;;;5109794;28;19930;-89
2021/01/03 09:04:53;;;;;;;;;;;5.10;96.00;;;;;;5096234;28;19904;-88
2021/01/03 09:07:19;;;;;;;;;;;5.10;95.90;;;;;;5079095;28;19919;-88
2021/01/03 09:09:46;;;;;;;;;;;5.10;96.00;;;;;;5107253;28;19915;-86
2021/01/03 09:12:13;;;;;;;;;;;5.10;95.90;;;;;;5107637;28;19982;-90
2021/01/03 09:14:47;;;;;;;;;;;5.10;95.90;;;;;;5079250;28;19904;-89
2021/01/03 09:17:16;;;;;;;;;;;5.10;96.00;;;;;;5091964;28;19912;-89
2021/01/03 09:19:44;;;;;;;;;;;5.10;95.90;;;;;;5060368;28;20348;-91
2021/01/03 09:22:10;;;;;;;;;;;5.10;95.90;;;;;;5084103;28;19915;-88
2021/01/03 09:24:36;;;;;;;;;;;5.10;96.00;;;;;;5055936;28;19909;-91
2021/01/03 09:27:03;;;;;;;;;;;5.10;95.90;;;;;;5062466;28;19959;-90
2021/01/03 09:29:29;;;;;;;;;;;5.10;95.90;;;;;;5077964;28;19980;-90
2021/01/03 09:32:15;;;;;;;;;;;5.10;95.90;;;;;;5071763;28;20364;-90
2021/01/03 09:34:53;;;;;;;;;;;5.10;95.90;;;;;;5072040;28;19904;-90
2021/01/03 09:37:24;;;;;;;;;;;5.10;95.80;;;;;;5075309;28;19916;-91
2021/01/03 09:40:08;;;;;;;;;;;5.10;95.80;;;;;;5077311;28;20352;-89
2021/01/03 09:42:35;;;;;;;;;;;5.10;95.80;;;;;;5063659;28;19908;-89
2021/01/03 09:45:07;;;;;;;;;;;5.10;95.80;;;;;;5061908;28;20289;-91
2021/01/03 09:47:37;;;;;;;;;;;5.10;95.80;;;;;;5058501;28;19904;-90
2021/01/03 09:50:12;;;;;;;;;;;5.10;95.80;;;;;;5073799;28;19953;-90
2021/01/03 09:52:46;;;;;;;;;;;5.10;95.80;;;;;;5065321;28;19908;-90
2021/01/03 09:55:16;;;;;;;;;;;5.10;95.90;;;;;;5078081;28;20367;-89
2021/01/03 09:57:53;;;;;;;;;;;5.10;95.80;;;;;;5073899;28;19919;-90
2021/01/03 10:00:21;;;;;;;;;;;5.10;95.80;;;;;;5060026;28;20002;-90
2021/01/03 10:02:47;;;;;;;;;;;5.10;95.80;;;;;;5084377;28;20352;-88
2021/01/03 10:05:21;;;;;;;;;;;5.10;95.70;;;;;;5056110;28;19912;-88
2021/01/03 10:07:55;;;;;;;;;;;5.10;95.80;;;;;;5067439;28;19911;-93
2021/01/03 10:10:21;;;;;;;;;;;5.10;95.80;;;;;;5065711;28;19947;-90
2021/01/03 10:12:47;;;;;;;;;;;5.10;95.80;;;;;;5087912;28;19946;-90
2021/01/03 10:15:26;;;;;;;;;;;5.10;95.80;;;;;;5055006;28;19915;-91
2021/01/03 10:17:59;;;;;;;;;;;5.20;95.80;;;;;;5078927;28;19916;-92
2021/01/03 10:20:33;;;;;;;;;;;5.10;95.80;;;;;;5066482;28;19916;-91
2021/01/03 10:22:59;;;;;;;;;;;5.10;95.70;;;;;;5071576;28;19911;-93
2021/01/03 10:25:24;;;;;;;;;;;5.10;95.70;;;;;;5086679;28;19908;-94
2021/01/03 10:28:09;;;;;;;;;;;5.20;95.60;;;;;;5097969;28;19915;-90
2021/01/03 10:30:34;;;;;;;;;;;5.10;95.60;;;;;;5061324;28;19915;-90
2021/01/03 10:33:01;;;;;;;;;;;5.10;95.90;;;;;;5070146;28;19904;-91
2021/01/03 10:35:27;;;;;;;;;;;5.20;95.50;;;;;;5075279;28;19964;-93
2021/01/03 10:37:52;;;;;;;;;;;5.10;95.50;;;;;;5079586;28;19930;-93
2021/01/03 10:40:19;;;;;;;;;;;5.10;95.50;;;;;;5098041;28;19908;-92
2021/01/03 10:42:45;;;;;;;;;;;5.20;95.50;;;;;;5072098;28;20245;-93
2021/01/03 10:45:11;;;;;;;;;;;5.20;95.50;;;;;;5075419;28;19912;-92
2021/01/03 10:47:37;;;;;;;;;;;5.10;95.40;;;;;;5061264;28;19913;-92
2021/01/03 10:50:03;;;;;;;;;;;5.10;95.50;;;;;;5081700;28;19947;-91
2021/01/03 10:52:28;;;;;;;;;;;5.10;95.40;;;;;;5078071;28;19930;-94
2021/01/03 10:54:54;;;;;;;;;;;5.20;95.40;;;;;;5077753;28;19920;-92
2021/01/03 10:57:19;;;;;;;;;;;5.10;95.50;;;;;;5055840;28;19951;-90
2021/01/03 10:59:45;;;;;;;;;;;5.20;95.60;;;;;;5068089;28;20022;-87
2021/01/03 11:02:10;;;;;;;;;;;5.20;95.40;;;;;;5059130;28;19915;-91
2021/01/03 11:04:36;;;;;;;;;;;5.20;95.40;;;;;;5045135;28;19916;-89
2021/01/03 11:07:01;;;;;;;;;;;5.20;95.30;;;;;;5054479;28;19977;-89
2021/01/03 11:09:31;;;;;;;;;;;5.20;95.30;;;;;;5092397;28;19916;-89
2021/01/03 11:12:01;;;;;;;;;;;5.20;95.20;;;;;;5075780;28;20007;-88
2021/01/03 11:14:26;;;;;;;;;;;5.20;95.20;;;;;;5078467;28;19908;-87
2021/01/03 11:16:52;;;;;;;;;;;5.20;95.20;;;;;;5078232;28;19958;-90
2021/01/03 11:19:17;;;;;;;;;;;5.20;95.20;;;;;;5062601;28;19962;-88
2021/01/03 11:21:43;;;;;;;;;;;5.20;95.20;;;;;;5065127;28;19912;-92
2021/01/03 11:24:10;;;;;;;;;;;5.20;95.20;;;;;;5077312;28;20402;-86
2021/01/03 11:26:38;;;;;;;;;;;5.20;95.20;;;;;;5067403;28;19908;-90
2021/01/03 11:29:04;;;;;;;;;;;5.20;95.20;;;;;;5062999;28;19909;-90
2021/01/03 11:31:31;;;;;;;;;;;5.20;95.20;;;;;;5065788;28;19915;-84
2021/01/03 11:33:56;;;;;;;;;;;5.20;95.20;;;;;;5060977;28;19915;-91
2021/01/03 11:36:22;;;;;;;;;;;5.20;95.10;;;;;;5071892;28;19928;-90
2021/01/03 11:38:47;;;;;;;;;;;5.20;95.10;;;;;;5069420;28;20561;-89
2021/01/03 11:41:13;;;;;;;;;;;5.20;95.10;;;;;;5066312;28;19909;-90
2021/01/03 11:43:39;;;;;;;;;;;5.20;95.00;;;;;;5089630;28;19909;-89
2021/01/03 11:46:05;;;;;;;;;;;5.20;95.00;;;;;;5068304;28;19912;-90
2021/01/03 11:48:30;;;;;;;;;;;5.20;95.10;;;;;;5077412;28;19915;-91
2021/01/03 11:50:56;;;;;;;;;;;5.20;95.00;;;;;;5062355;28;20014;-91
2021/01/03 11:53:21;;;;;;;;;;;5.20;95.00;;;;;;5054418;28;20435;-91
2021/01/03 11:55:47;;;;;;;;;;;5.20;95.00;;;;;;5060630;28;19919;-91
2021/01/03 11:58:12;;;;;;;;;;;5.20;94.90;;;;;;5076637;28;19927;-90
2021/01/03 12:00:38;;;;;;;;;;;5.20;94.90;;;;;;5073094;28;19912;-90
2021/01/03 12:03:04;;;;;;;;;;;5.30;94.90;;;;;;5074758;28;19908;-88
2021/01/03 12:05:29;;;;;;;;;;;5.30;94.90;;;;;;5076331;28;19904;-89
2021/01/03 12:07:55;;;;;;;;;;;5.20;94.90;;;;;;5085924;28;19995;-84
2021/01/03 12:10:20;;;;;;;;;;;5.20;94.90;;;;;;5056163;28;20000;-89
2021/01/03 12:12:46;;;;;;;;;;;5.30;94.70;;;;;;5056626;28;19927;-91
2021/01/03 12:15:11;;;;;;;;;;;5.20;94.60;;;;;;5057394;28;19973;-91
2021/01/03 12:17:37;;;;;;;;;;;5.20;94.50;;;;;;5056600;28;19917;-88
2021/01/03 12:20:03;;;;;;;;;;;5.20;94.60;;;;;;5057183;28;19912;-90
2021/01/03 12:22:31;;;;;;;;;;;5.20;94.60;;;;;;5063236;28;19919;-91
2021/01/03 12:24:56;;;;;;;;;;;5.20;94.50;;;;;;5068736;28;20337;-84
2021/01/03 12:27:22;;;;;;;;;;;5.30;94.60;;;;;;5070532;28;19915;-89
2021/01/03 12:29:47;;;;;;;;;;;5.30;94.70;;;;;;5061906;28;20010;-91
2021/01/03 12:32:13;;;;;;;;;;;5.30;94.70;;;;;;5063083;28;20007;-89
2021/01/03 12:34:39;;;;;;;;;;;5.30;94.70;;;;;;5076298;28;19912;-91
2021/01/03 12:37:07;;;;;;;;;;;5.30;94.60;;;;;;5078006;28;19924;-86
2021/01/03 12:39:32;;;;;;;;;;;5.30;94.60;;;;;;5082572;28;19908;-84
2021/01/03 12:41:59;;;;;;;;;;;5.30;94.60;;;;;;5082886;28;19957;-84
2021/01/03 12:44:25;;;;;;;;;;;5.30;94.50;;;;;;5088952;28;20238;-85
2021/01/03 12:46:50;;;;;;;;;;;5.30;94.60;;;;;;5118269;28;19904;-85
2021/01/03 12:49:16;;;;;;;;;;;5.30;94.60;;;;;;5074299;28;19924;-85
2021/01/03 12:51:41;;;;;;;;;;;5.40;94.60;;;;;;5112854;28;19895;-85
2021/01/03 12:54:07;;;;;;;;;;;5.30;94.50;;;;;;5089884;28;19913;-86
2021/01/03 12:56:33;;;;;;;;;;;5.40;94.50;;;;;;5058269;28;19916;-87
2021/01/03 12:58:59;;;;;;;;;;;5.40;94.20;;;;;;5081007;28;19931;-85
2021/01/03 13:01:29;;;;;;;;;;;5.40;94.30;;;;;;5109907;28;19916;-84
2021/01/03 13:03:58;;;;;;;;;;;5.40;94.40;;;;;;5087903;28;19958;-84
2021/01/03 13:06:24;;;;;;;;;;;5.40;94.50;;;;;;5096002;28;19908;-86
2021/01/03 13:08:49;;;;;;;;;;;5.50;94.50;;;;;;5086970;28;19908;-84
2021/01/03 13:11:19;;;;;;;;;;;5.40;94.20;;;;;;5087478;28;19911;-84
2021/01/03 13:13:44;;;;;;;;;;;5.40;94.40;;;;;;5054658;28;19912;-85
2021/01/03 13:16:13;;;;;;;;;;;5.40;94.30;;;;;;5072060;28;19912;-85
2021/01/03 13:18:39;;;;;;;;;;;5.40;94.30;;;;;;5069655;28;19916;-84
2021/01/03 13:21:07;;;;;;;;;;;5.50;94.40;;;;;;5083444;28;19911;-85
2021/01/03 13:23:33;;;;;;;;;;;5.50;94.30;;;;;;5070409;28;19908;-84
2021/01/03 13:25:59;;;;;;;;;;;5.40;94.20;;;;;;5064408;28;19911;-85
2021/01/03 13:28:24;;;;;;;;;;;5.50;94.20;;;;;;5058634;28;19947;-84
2021/01/03 13:30:50;;;;;;;;;;;5.50;94.20;;;;;;5072325;28;20374;-84
2021/01/03 13:33:16;;;;;;;;;;;5.50;94.10;;;;;;5066481;28;19915;-85
2021/01/03 13:35:42;;;;;;;;;;;5.50;94.00;;;;;;5066107;28;19904;-85
2021/01/03 13:38:07;;;;;;;;;;;5.50;94.00;;;;;;5075157;28;19922;-85
2021/01/03 13:40:33;;;;;;;;;;;5.50;94.10;;;;;;5064041;28;19912;-85
2021/01/03 13:42:58;;;;;;;;;;;5.50;94.30;;;;;;5068048;28;20058;-84
2021/01/03 13:45:24;;;;;;;;;;;5.50;94.30;;;;;;5068274;28;19912;-84
2021/01/03 13:47:50;;;;;;;;;;;5.50;94.20;;;;;;5076420;28;19919;-83
2021/01/03 13:50:17;;;;;;;;;;;5.50;94.20;;;;;;5076928;28;19927;-84
2021/01/03 13:52:42;;;;;;;;;;;5.50;94.20;;;;;;5082914;28;19904;-84
2021/01/03 13:55:10;;;;;;;;;;;5.60;94.20;;;;;;5063223;28;19915;-85
2021/01/03 13:57:36;;;;;;;;;;;5.50;94.20;;;;;;5069883;28;19938;-85
2021/01/03 14:00:04;;;;;;;;;;;5.50;94.30;;;;;;5073792;28;19904;-83
2021/01/03 14:02:43;;;;;;;;;;;5.50;94.30;;;;;;5093038;28;19994;-84
2021/01/03 14:05:09;;;;;;;;;;;5.50;94.30;;;;;;5077920;28;19961;-83
2021/01/03 14:07:35;;;;;;;;;;;5.50;94.20;;;;;;5059818;28;20051;-86
2021/01/03 14:10:00;;;;;;;;;;;5.60;94.20;;;;;;5074032;28;20083;-84
2021/01/03 14:12:26;;;;;;;;;;;5.60;94.20;;;;;;5079837;28;20318;-87
2021/01/03 14:14:52;;;;;;;;;;;5.60;94.20;;;;;;5041988;28;20322;-86
2021/01/03 14:17:17;;;;;;;;;;;5.50;94.20;;;;;;5057128;28;19923;-85
2021/01/03 14:19:43;;;;;;;;;;;5.60;94.30;;;;;;5079594;28;19912;-85
2021/01/03 14:22:09;;;;;;;;;;;5.50;94.30;;;;;;5073360;28;19955;-85
2021/01/03 14:24:35;;;;;;;;;;;5.50;94.20;;;;;;5058516;28;19908;-85
2021/01/03 14:27:01;;;;;;;;;;;5.50;94.30;;;;;;5053615;28;19991;-84
2021/01/03 14:29:27;;;;;;;;;;;5.50;94.10;;;;;;5049461;28;19993;-85
2021/01/03 14:31:58;;;;;;;;;;;5.50;94.20;;;;;;5063971;28;19986;-85
2021/01/03 14:34:34;;;;;;;;;;;5.60;94.20;;;;;;5100312;28;20309;-85
2021/01/03 14:37:20;;;;;;;;;;;5.60;94.20;;;;;;5075041;28;20309;-84
2021/01/03 14:39:48;;;;;;;;;;;5.50;94.20;;;;;;5078110;28;19909;-84